Vera, Missouri
Current Conditions -  °F | °C
As of 6:15 AM on Sunday 23 Nov 2014 (Local Time) from KPPQ Reporting Station
Broken Clouds Broken Clouds  
Wind Chill: 53°   Ceiling: 8500
Heat Index: 53°   Visibility: 10mi
Dew Point: 47°   Wind: 9mph
Humidity: 80%   Direction: 170°S
Pressure: 29.7"   Gusts: NA
Location:  39.321°N, 91.1912°W
Report Text: KPPQ 231215Z AUTO 17008KT 10SM SCT028 SCT037 BKN085 12/08 A2970 RMK AO2 T01160082 PWINO
Loading
Personal Weather Stations






























Interactive Weather Map New forecast layout! Learn more

10-Day Weather Forecast

Advertisements
Track Severe Weather on mobile